createdAt,value
2022-11-12T00:00:41.869Z,86.48
2022-11-12T00:03:08.649Z,85.71
2022-11-12T00:05:35.438Z,84.97
2022-11-12T00:08:01.985Z,84.78
2022-11-12T00:10:28.754Z,85.53
2022-11-12T00:12:55.446Z,85.74
2022-11-12T00:15:22.008Z,85.57
2022-11-12T00:17:48.505Z,86.05
2022-11-12T00:20:15.363Z,85.82
2022-11-12T00:22:42.203Z,85.27
2022-11-12T00:25:09.001Z,85.59
2022-11-12T00:27:35.787Z,86.19
2022-11-12T00:30:02.308Z,85.47
2022-11-12T00:32:28.826Z,85.19
2022-11-12T00:34:55.316Z,85.13
2022-11-12T00:37:21.873Z,84.94
2022-11-12T00:39:48.561Z,84.14
2022-11-12T00:42:15.741Z,84.13
2022-11-12T00:44:42.239Z,84.47
2022-11-12T00:47:08.708Z,83.89
2022-11-12T00:49:35.224Z,84.00
2022-11-12T00:52:03.532Z,83.99
2022-11-12T00:54:30.058Z,83.53
2022-11-12T00:56:56.531Z,83.70
2022-11-12T00:59:22.993Z,83.14
2022-11-12T01:01:49.723Z,83.02
2022-11-12T01:04:16.237Z,82.58
2022-11-12T01:06:45.408Z,82.50
2022-11-12T01:09:11.928Z,82.04
2022-11-12T01:11:40.788Z,83.36
2022-11-12T01:14:08.819Z,82.81
2022-11-12T01:16:39.088Z,83.00
2022-11-12T01:19:07.645Z,81.96
2022-11-12T01:21:38.291Z,82.53
2022-11-12T01:24:04.882Z,83.00
2022-11-12T01:26:31.400Z,82.94
2022-11-12T01:28:58.194Z,82.41
2022-11-12T01:31:26.736Z,82.37
2022-11-12T01:33:55.238Z,82.60
2022-11-12T01:36:22.170Z,82.11
2022-11-12T01:38:48.709Z,82.03
2022-11-12T01:41:23.132Z,83.24
2022-11-12T01:44:20.006Z,84.49
2022-11-12T01:47:05.841Z,84.81
2022-11-12T01:49:54.146Z,85.21
2022-11-12T01:52:24.977Z,84.56
2022-11-12T01:54:53.588Z,84.69
2022-11-12T01:58:05.498Z,84.94
2022-11-12T02:00:32.077Z,86.09
2022-11-12T02:03:00.899Z,87.04
2022-11-12T02:05:28.752Z,87.25
2022-11-12T02:07:59.556Z,87.01
2022-11-12T02:10:26.465Z,87.10
2022-11-12T02:12:53.781Z,87.30
2022-11-12T02:15:20.373Z,88.64
2022-11-12T02:17:46.890Z,87.64
2022-11-12T02:20:14.642Z,87.29
2022-11-12T02:22:41.140Z,87.00
2022-11-12T02:25:11.178Z,87.58
2022-11-12T02:27:37.782Z,87.50
2022-11-12T02:30:04.994Z,87.30
2022-11-12T02:32:31.518Z,87.80
2022-11-12T02:34:58.050Z,87.03
2022-11-12T02:37:24.522Z,86.67
2022-11-12T02:39:50.995Z,87.04
2022-11-12T02:42:17.469Z,87.61
2022-11-12T02:44:44.090Z,86.64
2022-11-12T02:47:10.555Z,87.36
2022-11-12T02:49:37.046Z,87.66
2022-11-12T02:52:03.573Z,87.43
2022-11-12T02:54:30.199Z,87.41
2022-11-12T02:56:56.801Z,87.35
2022-11-12T02:59:23.279Z,86.94
2022-11-12T03:01:49.823Z,88.32
2022-11-12T03:04:16.353Z,88.14
2022-11-12T03:06:42.848Z,88.37
2022-11-12T03:09:11.572Z,87.55
2022-11-12T03:11:38.189Z,88.06
2022-11-12T03:14:04.650Z,87.22
2022-11-12T03:16:31.477Z,88.01
2022-11-12T03:18:58.122Z,88.37
2022-11-12T03:21:24.548Z,87.03
2022-11-12T03:23:51.021Z,86.78
2022-11-12T03:26:17.648Z,86.93
2022-11-12T03:28:44.278Z,87.82
2022-11-12T03:31:10.749Z,90.41
2022-11-12T03:33:37.800Z,90.06
2022-11-12T03:36:04.985Z,90.52
2022-11-12T03:38:31.442Z,90.30
2022-11-12T03:40:57.867Z,90.11
2022-11-12T03:43:24.313Z,90.02
2022-11-12T03:45:50.879Z,89.53
2022-11-12T03:48:17.525Z,88.90
2022-11-12T03:50:44.098Z,88.46
2022-11-12T03:53:10.782Z,89.03
2022-11-12T03:55:37.263Z,88.21
2022-11-12T03:58:03.908Z,88.53
2022-11-12T04:00:30.905Z,88.63
2022-11-12T04:02:58.111Z,88.02
2022-11-12T04:05:25.476Z,88.41
2022-11-12T04:07:59.707Z,87.24
2022-11-12T04:10:26.279Z,86.62
2022-11-12T04:13:10.553Z,85.79
2022-11-12T04:15:37.077Z,86.14
2022-11-12T04:18:03.713Z,86.23
2022-11-12T04:20:30.286Z,85.43
2022-11-12T04:22:58.021Z,85.90
2022-11-12T04:25:24.513Z,86.96
2022-11-12T04:27:51.012Z,86.78
2022-11-12T04:30:18.137Z,86.97
2022-11-12T04:32:50.144Z,86.82
2022-11-12T04:35:16.991Z,86.04
2022-11-12T04:37:43.612Z,86.65
2022-11-12T04:40:20.338Z,85.87
2022-11-12T04:42:47.753Z,86.90
2022-11-12T04:45:14.265Z,86.88
2022-11-12T04:47:41.839Z,86.13
2022-11-12T04:50:14.085Z,85.72
2022-11-12T04:52:40.624Z,86.77
2022-11-12T04:55:08.059Z,86.68
2022-11-12T04:57:34.761Z,86.41
2022-11-12T05:00:01.684Z,84.96
2022-11-12T05:02:28.184Z,84.52
2022-11-12T05:04:54.649Z,85.03
2022-11-12T05:07:21.164Z,85.05
2022-11-12T05:09:47.746Z,83.65
2022-11-12T05:12:14.669Z,83.16
2022-11-12T05:14:41.121Z,82.76
2022-11-12T05:17:07.612Z,81.94
2022-11-12T05:19:34.155Z,81.75
2022-11-12T05:22:00.983Z,81.65
2022-11-12T05:24:40.898Z,81.64
2022-11-12T05:27:16.430Z,81.54
2022-11-12T05:29:43.143Z,81.26
2022-11-12T05:32:13.259Z,81.50
2022-11-12T05:34:39.825Z,81.22
2022-11-12T05:37:08.106Z,81.90
2022-11-12T05:39:34.735Z,81.95
2022-11-12T05:42:16.584Z,81.78
2022-11-12T05:44:43.101Z,81.55
2022-11-12T05:47:09.616Z,81.27
2022-11-12T05:49:36.097Z,80.96
2022-11-12T05:52:02.576Z,80.35
2022-11-12T05:54:31.401Z,80.10
2022-11-12T05:56:58.327Z,80.64
2022-11-12T05:59:24.778Z,80.85
2022-11-12T06:01:51.243Z,80.14
2022-11-12T06:04:18.142Z,80.09
2022-11-12T06:06:45.071Z,79.61
2022-11-12T06:09:11.997Z,79.58
2022-11-12T06:11:38.988Z,79.86
2022-11-12T06:14:05.777Z,80.95
2022-11-12T06:16:32.457Z,80.44
2022-11-12T06:18:59.083Z,80.40
2022-11-12T06:21:25.595Z,80.30
2022-11-12T06:23:54.854Z,80.22
2022-11-12T06:26:21.612Z,80.79
2022-11-12T06:28:48.846Z,80.64
2022-11-12T06:31:15.986Z,80.70
2022-11-12T06:33:43.053Z,81.35
2022-11-12T06:36:11.703Z,81.19
2022-11-12T06:38:39.120Z,81.34
2022-11-12T06:41:06.280Z,81.38
2022-11-12T06:43:33.933Z,81.28
2022-11-12T06:46:04.797Z,81.90
2022-11-12T06:48:31.445Z,81.70
2022-11-12T06:50:58.500Z,82.48
2022-11-12T06:53:25.607Z,83.36
2022-11-12T06:55:52.322Z,82.91
2022-11-12T06:58:18.955Z,82.75
2022-11-12T07:00:45.645Z,82.18
2022-11-12T07:03:13.494Z,81.97
2022-11-12T07:05:40.123Z,81.97
2022-11-12T07:08:06.649Z,81.97
2022-11-12T07:10:33.366Z,81.32
2022-11-12T07:12:59.851Z,80.77
2022-11-12T07:15:26.352Z,81.05
2022-11-12T07:17:52.867Z,81.13
2022-11-12T07:20:19.368Z,80.49
2022-11-12T07:22:45.819Z,80.34
2022-11-12T07:25:12.433Z,81.08
2022-11-12T07:27:38.921Z,81.30
2022-11-12T07:30:05.956Z,80.83
2022-11-12T07:32:32.569Z,81.51
2022-11-12T07:34:59.027Z,81.13
2022-11-12T07:37:25.539Z,81.59
2022-11-12T07:39:52.012Z,81.70
2022-11-12T07:42:18.486Z,81.04
2022-11-12T07:44:44.930Z,81.82
2022-11-12T07:47:11.663Z,82.03
2022-11-12T07:49:38.206Z,81.46
2022-11-12T07:52:04.950Z,80.80
2022-11-12T07:54:31.468Z,80.15
2022-11-12T07:56:57.960Z,79.90
2022-11-12T07:59:24.506Z,80.53
2022-11-12T08:01:51.210Z,80.42
2022-11-12T08:04:17.728Z,80.18
2022-11-12T08:06:45.995Z,80.31
2022-11-12T08:09:12.582Z,79.80
2022-11-12T08:11:39.101Z,79.21
2022-11-12T08:14:05.757Z,79.64
2022-11-12T08:16:32.562Z,79.47
2022-11-12T08:18:59.168Z,78.75
2022-11-12T08:21:25.657Z,78.09
2022-11-12T08:23:52.172Z,77.13
2022-11-12T08:26:19.692Z,76.93
2022-11-12T08:28:46.794Z,76.34
2022-11-12T08:31:16.017Z,77.05
2022-11-12T08:33:43.114Z,76.88
2022-11-12T08:36:12.222Z,76.20
2022-11-12T08:38:38.758Z,77.10
2022-11-12T08:41:08.081Z,76.54
2022-11-12T08:43:35.106Z,76.38
2022-11-12T08:46:02.628Z,76.10
2022-11-12T08:48:30.117Z,75.03
2022-11-12T08:50:57.399Z,75.56
2022-11-12T08:53:24.784Z,75.44
2022-11-12T08:55:55.732Z,75.31
2022-11-12T08:58:23.275Z,75.66
2022-11-12T09:00:50.611Z,74.38
2022-11-12T09:03:19.281Z,74.30
2022-11-12T09:05:47.352Z,74.21
2022-11-12T09:08:16.587Z,74.09
2022-11-12T09:10:43.142Z,72.66
2022-11-12T09:13:10.005Z,72.65
2022-11-12T09:15:38.423Z,71.74
2022-11-12T09:18:07.944Z,71.89
2022-11-12T09:20:34.465Z,71.44
2022-11-12T09:23:02.735Z,70.95
2022-11-12T09:25:29.283Z,70.48
2022-11-12T09:27:56.453Z,70.72
2022-11-12T09:30:23.159Z,70.46
2022-11-12T09:32:49.824Z,69.66
2022-11-12T09:35:16.311Z,69.13
2022-11-12T09:37:42.778Z,69.05
2022-11-12T09:40:16.182Z,69.66
2022-11-12T09:42:51.618Z,69.79
2022-11-12T09:45:23.151Z,69.12
2022-11-12T09:47:54.136Z,69.50
2022-11-12T09:50:29.775Z,69.52
2022-11-12T09:53:02.736Z,69.02
2022-11-12T09:55:41.242Z,68.95
2022-11-12T09:58:18.561Z,69.29
2022-11-12T10:00:55.022Z,69.46
2022-11-12T10:03:40.185Z,70.91
2022-11-12T10:06:19.397Z,70.95
2022-11-12T10:09:03.203Z,71.51
2022-11-12T10:11:45.141Z,70.70
2022-11-12T10:14:22.739Z,70.66
2022-11-12T10:17:06.914Z,71.05
2022-11-12T10:19:40.834Z,70.48
2022-11-12T10:22:26.032Z,69.95
2022-11-12T10:24:53.750Z,69.79
2022-11-12T10:27:27.242Z,69.17
2022-11-12T10:30:00.992Z,69.20
2022-11-12T10:32:28.554Z,68.12
2022-11-12T10:34:58.719Z,67.93
2022-11-12T10:37:39.944Z,66.92
2022-11-12T10:40:30.284Z,67.16
2022-11-12T10:42:57.960Z,67.19
2022-11-12T10:45:24.790Z,66.92
2022-11-12T10:47:51.344Z,66.43
2022-11-12T10:50:27.282Z,65.89
2022-11-12T10:52:59.556Z,66.06
2022-11-12T10:55:30.327Z,66.28
2022-11-12T10:58:11.802Z,65.90
2022-11-12T11:00:52.394Z,66.07
2022-11-12T11:03:24.791Z,66.39
2022-11-12T11:06:14.100Z,65.16
2022-11-12T11:08:48.704Z,65.71
2022-11-12T11:11:25.612Z,65.37
2022-11-12T11:13:57.421Z,65.51
2022-11-12T11:16:28.794Z,64.60
2022-11-12T11:19:00.003Z,64.56
2022-11-12T11:21:42.646Z,64.44
2022-11-12T11:24:21.860Z,63.75
2022-11-12T11:27:00.458Z,64.44
2022-11-12T11:29:38.648Z,64.32
2022-11-12T11:32:26.173Z,64.22
2022-11-12T11:34:55.613Z,64.11
2022-11-12T11:37:29.885Z,64.90
2022-11-12T11:40:07.767Z,65.23
2022-11-12T11:42:40.193Z,64.80
2022-11-12T11:45:15.690Z,66.64
2022-11-12T11:48:00.718Z,67.26
2022-11-12T11:50:29.503Z,68.08
2022-11-12T11:53:20.688Z,68.17
2022-11-12T11:55:54.110Z,68.27
2022-11-12T11:58:29.707Z,67.42
2022-11-12T12:01:37.922Z,67.38
2022-11-12T12:04:25.923Z,67.14
2022-11-12T12:07:10.636Z,67.15
2022-11-12T12:09:55.969Z,66.64
2022-11-12T12:12:41.325Z,67.93
2022-11-12T12:15:07.756Z,67.08
2022-11-12T12:17:50.100Z,66.32
2022-11-12T12:20:19.651Z,66.07
2022-11-12T12:22:50.343Z,65.03
2022-11-12T12:25:22.023Z,64.32
2022-11-12T12:28:00.162Z,64.26
2022-11-12T12:30:52.101Z,64.23
2022-11-12T12:33:43.388Z,64.57
2022-11-12T12:36:13.098Z,64.36
2022-11-12T12:39:04.465Z,63.55
2022-11-12T12:41:43.221Z,63.76
2022-11-12T12:44:10.436Z,64.40
2022-11-12T12:46:45.975Z,65.50
2022-11-12T12:49:17.647Z,65.14
2022-11-12T12:51:44.228Z,65.15
2022-11-12T12:54:35.606Z,65.30
2022-11-12T12:57:05.346Z,65.07
2022-11-12T12:59:31.832Z,64.98
2022-11-12T13:02:00.140Z,65.05
2022-11-12T13:05:05.890Z,65.62
2022-11-12T13:08:01.368Z,65.18
2022-11-12T13:10:37.019Z,65.83
2022-11-12T13:13:06.396Z,65.84
2022-11-12T13:15:44.726Z,64.87
2022-11-12T13:18:15.974Z,65.68
2022-11-12T13:21:10.460Z,65.81
2022-11-12T13:23:50.209Z,65.90
2022-11-12T13:26:44.817Z,66.79
2022-11-12T13:29:31.563Z,66.63
2022-11-12T13:32:25.740Z,67.45
2022-11-12T13:35:11.551Z,67.35
2022-11-12T13:37:49.438Z,67.57
2022-11-12T13:40:37.577Z,67.56
2022-11-12T13:43:15.974Z,66.81
2022-11-12T13:45:52.415Z,67.47
2022-11-12T13:48:27.926Z,67.83
2022-11-12T13:51:00.032Z,67.70
2022-11-12T13:53:28.311Z,68.09
2022-11-12T13:55:55.086Z,68.46
2022-11-12T13:58:31.649Z,68.30
2022-11-12T14:01:03.124Z,68.65
2022-11-12T14:03:43.563Z,69.16
2022-11-12T14:06:37.793Z,69.14
2022-11-12T14:09:23.454Z,69.74
2022-11-12T14:12:01.975Z,69.36
2022-11-12T14:15:06.136Z,69.50
2022-11-12T14:17:57.279Z,70.03
2022-11-12T14:20:34.943Z,70.37
2022-11-12T14:23:24.584Z,70.47
2022-11-12T14:25:56.397Z,71.25
2022-11-12T14:28:35.741Z,70.48
2022-11-12T14:31:05.988Z,70.49
2022-11-12T14:33:32.803Z,70.83
2022-11-12T14:36:05.519Z,70.57
2022-11-12T14:38:34.280Z,71.20
2022-11-12T14:41:09.175Z,71.57
2022-11-12T14:43:43.558Z,71.39
2022-11-12T14:46:38.699Z,71.24
2022-11-12T14:49:18.676Z,70.62
2022-11-12T14:52:16.342Z,71.01
2022-11-12T14:54:54.315Z,71.81
2022-11-12T14:57:30.110Z,73.19
2022-11-12T14:59:57.177Z,73.55
2022-11-12T15:02:49.922Z,73.93
2022-11-12T15:05:21.134Z,74.28
2022-11-12T15:07:53.291Z,74.13
2022-11-12T15:10:40.891Z,74.62
2022-11-12T15:13:13.845Z,74.00
2022-11-12T15:15:50.012Z,74.81
2022-11-12T15:18:21.863Z,75.47
2022-11-12T15:21:15.639Z,75.39
2022-11-12T15:23:50.114Z,75.19
2022-11-12T15:26:53.059Z,76.05
2022-11-12T15:29:35.410Z,76.21
2022-11-12T15:32:13.794Z,76.89
2022-11-12T15:34:40.463Z,77.19
2022-11-12T15:37:19.469Z,76.41
2022-11-12T15:39:49.171Z,77.17
2022-11-12T15:42:31.407Z,77.91
2022-11-12T15:45:00.735Z,77.43
2022-11-12T15:47:27.821Z,78.51
2022-11-12T15:49:56.532Z,78.31
2022-11-12T15:52:23.183Z,78.45
2022-11-12T15:54:49.766Z,78.20
2022-11-12T15:57:20.458Z,78.23
2022-11-12T15:59:54.873Z,78.51
2022-11-12T16:02:21.376Z,78.48
2022-11-12T16:04:49.328Z,78.25
2022-11-12T16:07:16.164Z,78.43
2022-11-12T16:09:42.681Z,78.03
2022-11-12T16:12:13.034Z,78.01
2022-11-12T16:14:40.257Z,78.05
2022-11-12T16:17:11.559Z,77.93
2022-11-12T16:19:38.123Z,78.02
2022-11-12T16:22:07.111Z,77.85
2022-11-12T16:24:33.591Z,78.30
2022-11-12T16:27:00.083Z,78.19
2022-11-12T16:29:26.577Z,78.78
2022-11-12T16:31:53.168Z,79.10
2022-11-12T16:34:19.666Z,80.12
2022-11-12T16:36:49.250Z,80.70
2022-11-12T16:39:15.790Z,81.45
2022-11-12T16:41:44.630Z,80.94
2022-11-12T16:44:12.316Z,80.44
2022-11-12T16:46:42.461Z,80.27
2022-11-12T16:49:15.161Z,80.00
2022-11-12T16:51:41.645Z,79.73
2022-11-12T16:54:09.336Z,80.17
2022-11-12T16:56:36.573Z,80.73
2022-11-12T16:59:03.506Z,80.52
2022-11-12T17:01:32.091Z,80.93
2022-11-12T17:03:59.226Z,81.18
2022-11-12T17:06:35.260Z,82.35
2022-11-12T17:09:23.831Z,82.24
2022-11-12T17:11:50.306Z,82.15
2022-11-12T17:14:16.756Z,82.11
2022-11-12T17:16:43.224Z,82.04
2022-11-12T17:19:09.749Z,82.50
2022-11-12T17:21:36.431Z,81.75
2022-11-12T17:24:05.700Z,82.44
2022-11-12T17:26:32.201Z,81.33
2022-11-12T17:29:07.664Z,82.38
2022-11-12T17:31:41.503Z,84.48
2022-11-12T17:34:08.010Z,83.65
2022-11-12T17:36:36.987Z,83.66
2022-11-12T17:39:10.316Z,82.28
2022-11-12T17:41:40.400Z,82.48
2022-11-12T17:44:07.039Z,82.79
2022-11-12T17:46:33.552Z,82.51
2022-11-12T17:49:00.083Z,81.98
2022-11-12T17:51:27.816Z,83.90
2022-11-12T17:53:54.470Z,83.82
2022-11-12T17:56:22.850Z,83.36
2022-11-12T17:58:50.162Z,84.20
2022-11-12T18:01:24.822Z,83.21
2022-11-12T18:03:52.612Z,83.04
2022-11-12T18:06:21.653Z,82.15
2022-11-12T18:08:52.866Z,83.29
2022-11-12T18:11:19.523Z,83.42
2022-11-12T18:13:46.130Z,83.90
2022-11-12T18:16:16.615Z,85.22
2022-11-12T18:18:44.395Z,84.31
2022-11-12T18:21:11.169Z,84.57
2022-11-12T18:23:39.389Z,84.15
2022-11-12T18:26:09.252Z,84.02
2022-11-12T18:28:35.826Z,84.50
2022-11-12T18:31:04.203Z,84.58
2022-11-12T18:33:31.317Z,85.17
2022-11-12T18:36:02.531Z,86.19
2022-11-12T18:38:32.507Z,87.03
2022-11-12T18:41:02.248Z,87.45
2022-11-12T18:43:29.668Z,87.93
2022-11-12T18:45:57.315Z,87.94
2022-11-12T18:48:29.919Z,88.01
2022-11-12T18:51:00.839Z,86.25
2022-11-12T18:53:28.820Z,85.14
2022-11-12T18:55:58.765Z,84.79
2022-11-12T18:58:30.522Z,84.83
2022-11-12T19:01:05.266Z,85.31
2022-11-12T19:03:33.659Z,85.28
2022-11-12T19:06:01.506Z,84.68
2022-11-12T19:08:28.392Z,85.08
2022-11-12T19:11:03.255Z,84.60
2022-11-12T19:13:30.335Z,83.77
2022-11-12T19:16:03.970Z,84.24
2022-11-12T19:18:30.916Z,84.00
2022-11-12T19:21:03.742Z,84.55
2022-11-12T19:23:31.019Z,84.95
2022-11-12T19:26:00.394Z,86.28
2022-11-12T19:28:27.659Z,85.72
2022-11-12T19:30:54.419Z,86.49
2022-11-12T19:33:20.899Z,86.69
2022-11-12T19:35:47.425Z,85.92
2022-11-12T19:38:14.715Z,86.60
2022-11-12T19:40:41.972Z,86.73
2022-11-12T19:43:08.554Z,86.32
2022-11-12T19:45:35.037Z,86.73
2022-11-12T19:48:01.513Z,86.34
2022-11-12T19:50:28.332Z,87.28
2022-11-12T19:52:54.933Z,87.81
2022-11-12T19:55:21.416Z,87.40
2022-11-12T19:57:51.137Z,86.93
2022-11-12T20:00:17.768Z,87.13
2022-11-12T20:02:44.262Z,88.35
2022-11-12T20:05:14.908Z,88.87
2022-11-12T20:07:41.558Z,89.42
2022-11-12T20:10:08.447Z,89.69
2022-11-12T20:12:34.907Z,91.37
2022-11-12T20:15:04.440Z,91.34
2022-11-12T20:17:32.574Z,90.22
2022-11-12T20:19:59.291Z,88.76
2022-11-12T20:22:31.661Z,88.02
2022-11-12T20:24:58.688Z,87.24
2022-11-12T20:27:25.550Z,88.25
2022-11-12T20:29:52.034Z,88.61
2022-11-12T20:32:18.585Z,89.46
2022-11-12T20:34:45.161Z,88.88
2022-11-12T20:37:11.744Z,90.44
2022-11-12T20:39:38.196Z,90.42
2022-11-12T20:42:04.675Z,89.55
2022-11-12T20:44:31.200Z,89.41
2022-11-12T20:46:57.654Z,88.54
2022-11-12T20:49:24.180Z,88.07
2022-11-12T20:51:50.660Z,87.43
2022-11-12T20:54:17.377Z,86.96
2022-11-12T20:56:44.995Z,86.01
2022-11-12T20:59:11.607Z,85.44
2022-11-12T21:01:38.504Z,85.49
2022-11-12T21:04:05.235Z,85.80
2022-11-12T21:06:31.817Z,85.87
2022-11-12T21:08:59.160Z,85.34
2022-11-12T21:11:25.959Z,85.27
2022-11-12T21:13:52.460Z,84.51
2022-11-12T21:16:21.375Z,83.92
2022-11-12T21:18:47.839Z,83.45
2022-11-12T21:21:17.146Z,82.98
2022-11-12T21:23:46.737Z,82.71
2022-11-12T21:26:15.304Z,82.48
2022-11-12T21:28:43.342Z,81.93
2022-11-12T21:31:18.038Z,82.95
2022-11-12T21:33:44.578Z,83.27
2022-11-12T21:36:16.159Z,83.78
2022-11-12T21:38:43.411Z,83.37
2022-11-12T21:41:12.260Z,82.77
2022-11-12T21:43:40.289Z,81.88
2022-11-12T21:46:08.191Z,81.61
2022-11-12T21:48:35.510Z,81.24
2022-11-12T21:51:03.714Z,82.00
2022-11-12T21:53:30.512Z,83.85
2022-11-12T21:56:26.563Z,84.85
2022-11-12T21:58:55.116Z,85.40
2022-11-12T22:01:23.239Z,86.13
2022-11-12T22:03:50.291Z,86.16
2022-11-12T22:06:17.726Z,85.25
2022-11-12T22:08:44.353Z,85.26
2022-11-12T22:11:15.694Z,85.57
2022-11-12T22:13:42.495Z,86.65
2022-11-12T22:16:11.887Z,86.72
2022-11-12T22:18:39.448Z,87.53
2022-11-12T22:21:08.285Z,87.70
2022-11-12T22:23:37.564Z,88.40
2022-11-12T22:26:05.894Z,88.61
2022-11-12T22:28:32.913Z,88.43
2022-11-12T22:31:13.756Z,89.06
2022-11-12T22:33:40.294Z,89.63
2022-11-12T22:36:15.342Z,89.23
2022-11-12T22:38:46.675Z,88.85
2022-11-12T22:41:18.843Z,89.35
2022-11-12T22:43:49.123Z,88.75
2022-11-12T22:46:16.749Z,88.51
2022-11-12T22:48:43.635Z,88.45
2022-11-12T22:51:14.140Z,87.70
2022-11-12T22:53:40.979Z,86.46
2022-11-12T22:56:10.164Z,85.96
2022-11-12T22:58:40.621Z,85.48
2022-11-12T23:01:09.645Z,85.44
2022-11-12T23:03:36.573Z,85.41
2022-11-12T23:06:05.827Z,86.13
2022-11-12T23:08:35.954Z,86.39
2022-11-12T23:11:07.939Z,85.74
2022-11-12T23:13:35.054Z,86.62
2022-11-12T23:16:01.985Z,86.53
2022-11-12T23:18:29.174Z,85.89
2022-11-12T23:21:04.596Z,85.20
2022-11-12T23:23:31.139Z,85.58
2022-11-12T23:26:09.599Z,85.63
2022-11-12T23:28:36.591Z,85.37
2022-11-12T23:31:04.753Z,86.35
2022-11-12T23:33:31.380Z,86.18
2022-11-12T23:36:08.849Z,85.89
2022-11-12T23:38:35.444Z,85.33
2022-11-12T23:41:03.210Z,84.71
2022-11-12T23:43:29.777Z,85.08
2022-11-12T23:45:56.763Z,84.83
2022-11-12T23:48:23.318Z,84.69
2022-11-12T23:50:50.485Z,85.58
2022-11-12T23:53:20.385Z,85.07
2022-11-12T23:55:46.877Z,85.44
2022-11-12T23:58:13.374Z,85.08
